CheckWX is a tool to help pilots better visualize weather data.  It is not intended as a substitute for an official pre-flight weather briefing.

14:31:27 UTC

VTCL TAF
Lampang Airport
Thailand
TAF VTCL 021700Z 0218/0318 22005KT 9999 SCT025 TEMPO 0308/0313 24015G30KT 4000 TSRA FEW018CB BKN025

Jul-2@
18:00 UTC

Jul-2 @ 18:00 UTC

Jul-3@
18:00 UTC

Jul-3 @ 18:00 UTC

TAF VTCL 021700Z 0218/0318 22005KT 9999 SCT025
Wind
  • 220° at 5 KTS
Cloud Levels
  • Scattered at 2,500' AGL

Jul-3@
08:00 UTC

Jul-3 @ 08:00 UTC

Jul-3@
13:00 UTC

Jul-3 @ 13:00 UTC

TEMPO 0308/0313 24015G30KT 4000 TSRA FEW018CB BKN025

Expired

Wind
  • 240° at 15 KTS
  • {Gusting to 30 KTS
Conditions
Thunderstorm, Rain
Cloud Levels
  • Few at 1,800' AGL
  • Broken at 2,500' AGL